createdAt,value
2022-09-11T00:00:23.185Z,1.70
2022-09-11T00:01:23.201Z,1.60
2022-09-11T00:02:23.299Z,2.10
2022-09-11T00:03:23.240Z,1.90
2022-09-11T00:04:23.248Z,1.60
2022-09-11T00:05:23.261Z,1.60
2022-09-11T00:06:29.359Z,1.70
2022-09-11T00:07:23.293Z,1.50
2022-09-11T00:08:23.327Z,1.70
2022-09-11T00:09:23.323Z,1.80
2022-09-11T00:10:23.338Z,2.20
2022-09-11T00:11:23.355Z,1.40
2022-09-11T00:12:23.369Z,1.60
2022-09-11T00:13:23.385Z,1.70
2022-09-11T00:14:23.400Z,1.60
2022-09-11T00:15:23.416Z,2.20
2022-09-11T00:16:23.464Z,1.70
2022-09-11T00:17:23.445Z,1.70
2022-09-11T00:18:23.461Z,1.60
2022-09-11T00:19:23.476Z,1.60
2022-09-11T00:20:23.497Z,1.60
2022-09-11T00:21:23.505Z,1.70
2022-09-11T00:22:23.522Z,1.70
2022-09-11T00:23:23.536Z,1.90
2022-09-11T00:24:23.572Z,1.90
2022-09-11T00:25:23.567Z,1.40
2022-09-11T00:26:23.582Z,1.40
2022-09-11T00:27:23.598Z,1.50
2022-09-11T00:28:23.615Z,1.90
2022-09-11T00:29:23.629Z,1.40
2022-09-11T00:30:23.645Z,1.50
2022-09-11T00:31:23.733Z,1.60
2022-09-11T00:32:23.675Z,1.70
2022-09-11T00:33:23.689Z,1.40
2022-09-11T00:34:23.703Z,1.50
2022-09-11T00:35:23.720Z,1.50
2022-09-11T00:36:23.735Z,1.60
2022-09-11T00:37:23.751Z,1.30
2022-09-11T00:38:23.766Z,1.30
2022-09-11T00:39:23.781Z,1.50
2022-09-11T00:40:23.815Z,1.80
2022-09-11T00:41:23.812Z,1.30
2022-09-11T00:42:23.826Z,1.40
2022-09-11T00:43:23.842Z,1.40
2022-09-11T00:44:23.857Z,1.10
2022-09-11T00:45:23.870Z,1.40
2022-09-11T00:46:23.887Z,1.20
2022-09-11T00:47:23.901Z,1.20
2022-09-11T00:48:23.916Z,2.00
2022-09-11T00:49:23.933Z,1.30
2022-09-11T00:50:23.948Z,1.20
2022-09-11T00:51:23.962Z,1.20
2022-09-11T00:52:23.977Z,1.10
2022-09-11T00:53:23.992Z,1.30
2022-09-11T00:54:24.007Z,1.20
2022-09-11T00:55:24.023Z,1.30
2022-09-11T00:56:24.054Z,1.10
2022-09-11T00:57:24.057Z,1.30
2022-09-11T00:58:24.068Z,1.10
2022-09-11T00:59:24.083Z,1.10
2022-09-11T01:00:24.099Z,1.10
2022-09-11T01:01:24.114Z,1.10
2022-09-11T01:02:27.300Z,1.10
2022-09-11T01:03:24.143Z,1.10
2022-09-11T01:04:24.159Z,0.90
2022-09-11T01:05:24.173Z,1.10
2022-09-11T01:06:24.192Z,1.50
2022-09-11T01:07:24.207Z,1.50
2022-09-11T01:08:24.218Z,1.10
2022-09-11T01:09:24.232Z,1.20
2022-09-11T01:10:24.250Z,1.20
2022-09-11T01:11:24.263Z,0.90
2022-09-11T01:12:24.297Z,1.10
2022-09-11T01:13:24.296Z,0.90
2022-09-11T01:14:24.309Z,1.20
2022-09-11T01:15:24.323Z,1.30
2022-09-11T01:16:24.368Z,1.60
2022-09-11T01:17:24.357Z,1.40
2022-09-11T01:18:24.367Z,1.10
2022-09-11T01:19:24.385Z,1.40
2022-09-11T01:20:24.398Z,1.30
2022-09-11T01:21:24.413Z,1.20
2022-09-11T01:22:24.428Z,1.50
2022-09-11T01:23:24.446Z,1.90
2022-09-11T01:24:24.458Z,1.40
2022-09-11T01:25:24.474Z,1.30
2022-09-11T01:26:24.491Z,1.40
2022-09-11T01:27:24.503Z,1.20
2022-09-11T01:28:24.538Z,1.20
2022-09-11T01:29:24.534Z,1.60
2022-09-11T01:30:24.548Z,1.20
2022-09-11T01:31:24.598Z,2.10
2022-09-11T01:32:24.579Z,1.30
2022-09-11T01:33:24.593Z,1.30
2022-09-11T01:34:24.608Z,1.20
2022-09-11T01:35:24.623Z,1.50
2022-09-11T01:36:24.638Z,1.60
2022-09-11T01:37:24.654Z,1.60
2022-09-11T01:38:24.667Z,2.80
2022-09-11T01:39:24.683Z,1.20
2022-09-11T01:40:24.698Z,1.80
2022-09-11T01:41:24.712Z,1.30
2022-09-11T01:42:24.728Z,1.30
2022-09-11T01:43:24.742Z,1.30
2022-09-11T01:44:24.780Z,1.00
2022-09-11T01:45:24.833Z,1.30
2022-09-11T01:46:24.786Z,1.50
2022-09-11T01:47:24.805Z,1.10
2022-09-11T01:48:24.817Z,1.60
2022-09-11T01:49:24.838Z,1.60
2022-09-11T01:50:24.846Z,1.50
2022-09-11T01:51:24.863Z,1.40
2022-09-11T01:52:24.877Z,1.30
2022-09-11T01:53:24.890Z,1.50
2022-09-11T01:54:24.906Z,1.60
2022-09-11T01:55:24.924Z,1.30
2022-09-11T01:56:24.936Z,1.20
2022-09-11T01:57:24.953Z,1.00
2022-09-11T01:58:24.969Z,1.10
2022-09-11T01:59:24.981Z,1.10
2022-09-11T02:00:25.015Z,1.40
2022-09-11T02:01:25.011Z,1.50
2022-09-11T02:02:25.026Z,1.00
2022-09-11T02:03:25.042Z,1.10
2022-09-11T02:04:25.057Z,1.90
2022-09-11T02:05:25.070Z,1.60
2022-09-11T02:06:25.085Z,1.70
2022-09-11T02:07:25.101Z,1.10
2022-09-11T02:08:25.114Z,1.30
2022-09-11T02:09:25.131Z,1.40
2022-09-11T02:10:25.145Z,1.20
2022-09-11T02:11:25.158Z,1.30
2022-09-11T02:12:25.175Z,1.10
2022-09-11T02:13:27.862Z,1.20
2022-09-11T02:14:25.204Z,1.00
2022-09-11T02:15:25.217Z,0.90
2022-09-11T02:16:25.293Z,1.40
2022-09-11T02:17:25.248Z,1.10
2022-09-11T02:18:25.264Z,1.10
2022-09-11T02:19:25.279Z,1.50
2022-09-11T02:20:25.294Z,1.50
2022-09-11T02:21:25.308Z,1.20
2022-09-11T02:22:25.323Z,1.10
2022-09-11T02:23:25.345Z,1.70
2022-09-11T02:24:25.352Z,1.10
2022-09-11T02:25:25.368Z,1.30
2022-09-11T02:26:25.382Z,0.60
2022-09-11T02:27:25.396Z,1.70
2022-09-11T02:28:25.410Z,1.80
2022-09-11T02:29:25.426Z,1.60
2022-09-11T02:30:25.439Z,1.10
2022-09-11T02:31:25.515Z,1.00
2022-09-11T02:32:25.487Z,0.90
2022-09-11T02:33:25.485Z,1.60
2022-09-11T02:34:25.501Z,1.60
2022-09-11T02:35:25.513Z,1.10
2022-09-11T02:36:25.529Z,1.90
2022-09-11T02:37:25.543Z,1.10
2022-09-11T02:38:25.558Z,1.30
2022-09-11T02:39:25.573Z,1.20
2022-09-11T02:40:25.587Z,1.10
2022-09-11T02:41:25.603Z,1.10
2022-09-11T02:42:25.617Z,1.30
2022-09-11T02:43:25.632Z,1.50
2022-09-11T02:44:25.647Z,1.10
2022-09-11T02:45:25.692Z,1.20
2022-09-11T02:46:25.675Z,0.90
2022-09-11T02:47:25.690Z,1.20
2022-09-11T02:48:25.726Z,1.20
2022-09-11T02:49:25.720Z,1.10
2022-09-11T02:50:25.735Z,1.50
2022-09-11T02:51:25.749Z,1.20
2022-09-11T02:52:25.763Z,1.00
2022-09-11T02:53:25.785Z,1.70
2022-09-11T02:54:25.797Z,1.20
2022-09-11T02:55:25.808Z,1.10
2022-09-11T02:56:25.822Z,1.20
2022-09-11T02:57:25.835Z,0.90
2022-09-11T02:58:25.850Z,1.50
2022-09-11T02:59:25.865Z,1.70
2022-09-11T03:00:25.880Z,1.20
2022-09-11T03:01:25.995Z,1.40
2022-09-11T03:02:25.909Z,1.30
2022-09-11T03:03:25.925Z,2.60
2022-09-11T03:04:25.957Z,1.30
2022-09-11T03:05:25.953Z,2.20
2022-09-11T03:06:25.967Z,1.80
2022-09-11T03:07:25.982Z,1.00
2022-09-11T03:08:25.997Z,1.50
2022-09-11T03:09:26.010Z,1.50
2022-09-11T03:10:26.028Z,1.80
2022-09-11T03:11:26.043Z,1.70
2022-09-11T03:12:26.055Z,1.60
2022-09-11T03:13:26.071Z,1.20
2022-09-11T03:14:26.085Z,1.30
2022-09-11T03:15:26.100Z,2.30
2022-09-11T03:16:26.186Z,1.80
2022-09-11T03:17:26.130Z,1.60
2022-09-11T03:18:26.142Z,1.90
2022-09-11T03:19:26.156Z,1.40
2022-09-11T03:20:26.195Z,1.60
2022-09-11T03:21:26.187Z,1.30
2022-09-11T03:22:26.203Z,1.50
2022-09-11T03:23:26.217Z,1.20
2022-09-11T03:24:26.234Z,1.30
2022-09-11T03:25:26.245Z,1.60
2022-09-11T03:26:26.261Z,1.40
2022-09-11T03:27:26.275Z,1.60
2022-09-11T03:28:26.290Z,1.30
2022-09-11T03:29:26.305Z,1.80
2022-09-11T03:30:26.318Z,1.30
2022-09-11T03:31:26.385Z,1.80
2022-09-11T03:32:26.347Z,1.70
2022-09-11T03:33:26.365Z,1.30
2022-09-11T03:34:26.378Z,2.40
2022-09-11T03:35:26.390Z,1.40
2022-09-11T03:36:26.425Z,1.80
2022-09-11T03:37:26.423Z,1.60
2022-09-11T03:38:26.435Z,1.70
2022-09-11T03:39:26.451Z,1.40
2022-09-11T03:40:26.463Z,1.70
2022-09-11T03:41:26.479Z,1.30
2022-09-11T03:42:26.492Z,2.30
2022-09-11T03:43:26.506Z,1.40
2022-09-11T03:44:26.523Z,1.60
2022-09-11T03:45:26.577Z,1.20
2022-09-11T03:46:26.553Z,1.70
2022-09-11T03:47:26.566Z,1.60
2022-09-11T03:48:26.582Z,1.80
2022-09-11T03:49:26.596Z,1.40
2022-09-11T03:50:26.612Z,1.30
2022-09-11T03:51:26.626Z,1.10
2022-09-11T03:52:26.659Z,2.20
2022-09-11T03:53:26.652Z,2.20
2022-09-11T03:54:26.667Z,1.60
2022-09-11T03:55:26.681Z,1.80
2022-09-11T03:56:26.696Z,2.30
2022-09-11T03:57:26.711Z,1.20
2022-09-11T03:58:26.931Z,1.50
2022-09-11T03:59:26.740Z,1.20
2022-09-11T04:00:26.755Z,2.10
2022-09-11T04:01:26.770Z,1.20
2022-09-11T04:02:26.782Z,1.50
2022-09-11T04:03:26.798Z,1.50
2022-09-11T04:04:26.813Z,2.00
2022-09-11T04:05:26.827Z,1.30
2022-09-11T04:06:26.841Z,1.30
2022-09-11T04:07:26.857Z,1.10
2022-09-11T04:08:26.891Z,1.30
2022-09-11T04:09:26.885Z,0.90
2022-09-11T04:10:26.899Z,1.20
2022-09-11T04:11:26.915Z,1.10
2022-09-11T04:12:26.929Z,1.30
2022-09-11T04:13:26.942Z,1.50
2022-09-11T04:14:26.958Z,1.30
2022-09-11T04:15:26.971Z,1.40
2022-09-11T04:16:27.308Z,1.40
2022-09-11T04:17:27.001Z,1.70
2022-09-11T04:18:27.014Z,1.20
2022-09-11T04:19:27.030Z,1.60
2022-09-11T04:20:27.044Z,1.40
2022-09-11T04:21:27.057Z,1.20
2022-09-11T04:22:27.072Z,1.20
2022-09-11T04:23:27.088Z,2.70
2022-09-11T04:24:27.122Z,1.10
2022-09-11T04:25:27.116Z,1.90
2022-09-11T04:26:27.130Z,1.10
2022-09-11T04:27:27.145Z,1.40
2022-09-11T04:28:27.159Z,0.90
2022-09-11T04:29:27.172Z,1.00
2022-09-11T04:30:27.187Z,1.60
2022-09-11T04:31:27.243Z,1.40
2022-09-11T04:32:27.217Z,1.50
2022-09-11T04:33:27.230Z,1.20
2022-09-11T04:34:27.249Z,1.40
2022-09-11T04:35:27.261Z,1.50
2022-09-11T04:36:27.365Z,1.10
2022-09-11T04:37:27.288Z,2.00
2022-09-11T04:38:27.301Z,1.30
2022-09-11T04:39:27.317Z,1.10
2022-09-11T04:40:27.348Z,0.60
2022-09-11T04:41:27.346Z,0.80
2022-09-11T04:42:27.357Z,0.90
2022-09-11T04:43:27.373Z,1.30
2022-09-11T04:44:27.389Z,1.70
2022-09-11T04:45:27.441Z,1.40
2022-09-11T04:46:27.417Z,1.10
2022-09-11T04:47:27.431Z,1.00
2022-09-11T04:48:27.446Z,1.00
2022-09-11T04:49:27.460Z,1.40
2022-09-11T04:50:27.476Z,1.20
2022-09-11T04:51:29.171Z,1.00
2022-09-11T04:52:27.503Z,1.30
2022-09-11T04:53:27.518Z,1.10
2022-09-11T04:54:27.533Z,1.00
2022-09-11T04:55:27.545Z,1.40
2022-09-11T04:56:27.580Z,1.10
2022-09-11T04:57:27.573Z,1.30
2022-09-11T04:58:27.588Z,1.10
2022-09-11T04:59:27.601Z,2.10
2022-09-11T05:00:27.615Z,1.40
2022-09-11T05:01:27.629Z,1.70
2022-09-11T05:02:27.703Z,2.00
2022-09-11T05:03:27.659Z,1.20
2022-09-11T05:04:27.672Z,1.40
2022-09-11T05:05:27.688Z,1.80
2022-09-11T05:06:27.699Z,1.50
2022-09-11T05:07:27.715Z,1.20
2022-09-11T05:08:27.731Z,1.40
2022-09-11T05:09:27.812Z,2.20
2022-09-11T05:10:27.758Z,1.80
2022-09-11T05:11:27.771Z,1.50
2022-09-11T05:12:27.804Z,1.70
2022-09-11T05:13:27.800Z,2.60
2022-09-11T05:14:27.813Z,1.70
2022-09-11T05:15:27.827Z,1.90
2022-09-11T05:16:27.887Z,1.70
2022-09-11T05:17:27.856Z,2.10
2022-09-11T05:18:27.869Z,2.00
2022-09-11T05:19:27.884Z,1.80
2022-09-11T05:20:27.901Z,1.70
2022-09-11T05:21:27.911Z,1.80
2022-09-11T05:22:27.928Z,1.80
2022-09-11T05:23:27.941Z,2.20
2022-09-11T05:24:27.966Z,1.70
2022-09-11T05:25:27.968Z,2.40
2022-09-11T05:26:27.984Z,1.60
2022-09-11T05:27:28.001Z,2.70
2022-09-11T05:28:28.030Z,1.50
2022-09-11T05:29:31.676Z,1.90
2022-09-11T05:30:28.040Z,2.00
2022-09-11T05:31:28.111Z,1.60
2022-09-11T05:32:28.066Z,1.90
2022-09-11T05:33:28.082Z,2.10
2022-09-11T05:34:28.097Z,2.20
2022-09-11T05:35:32.086Z,2.30
2022-09-11T05:36:28.124Z,2.10
2022-09-11T05:37:28.136Z,2.90
2022-09-11T05:38:28.150Z,2.30
2022-09-11T05:39:28.167Z,2.10
2022-09-11T05:40:28.180Z,2.80
2022-09-11T05:41:28.197Z,3.70
2022-09-11T05:42:28.208Z,2.50
2022-09-11T05:43:28.222Z,2.60
2022-09-11T05:44:28.253Z,2.20
2022-09-11T05:45:28.282Z,2.80
2022-09-11T05:46:28.264Z,2.80
2022-09-11T05:47:28.278Z,2.80
2022-09-11T05:48:28.290Z,2.80
2022-09-11T05:49:28.306Z,3.00
2022-09-11T05:50:28.320Z,2.70
2022-09-11T05:51:28.334Z,2.60
2022-09-11T05:52:28.347Z,1.90
2022-09-11T05:53:28.362Z,2.30
2022-09-11T05:54:28.377Z,2.40
2022-09-11T05:55:28.391Z,2.00
2022-09-11T05:56:28.405Z,3.30
2022-09-11T05:57:28.417Z,2.10
2022-09-11T05:58:28.435Z,2.60
2022-09-11T05:59:28.444Z,2.20
2022-09-11T06:00:28.477Z,2.30
2022-09-11T06:01:28.534Z,2.40
2022-09-11T06:02:28.526Z,2.40
2022-09-11T06:03:28.500Z,3.00
2022-09-11T06:04:28.516Z,2.50
2022-09-11T06:05:28.535Z,2.80
2022-09-11T06:06:28.543Z,2.70
2022-09-11T06:07:28.557Z,3.40
2022-09-11T06:08:28.574Z,2.60
2022-09-11T06:09:28.585Z,2.60
2022-09-11T06:10:28.597Z,2.50
2022-09-11T06:11:28.611Z,3.00
2022-09-11T06:12:28.626Z,3.00
2022-09-11T06:13:28.642Z,4.00
2022-09-11T06:14:28.655Z,2.30
2022-09-11T06:15:45.524Z,2.30
2022-09-11T06:16:28.742Z,3.00
2022-09-11T06:17:28.696Z,3.30
2022-09-11T06:18:28.708Z,3.50
2022-09-11T06:19:28.725Z,2.10
2022-09-11T06:20:28.739Z,2.60
2022-09-11T06:21:28.751Z,3.30
2022-09-11T06:22:28.764Z,3.00
2022-09-11T06:23:28.779Z,2.30
2022-09-11T06:24:28.795Z,3.40
2022-09-11T06:25:28.806Z,3.50
2022-09-11T06:26:28.821Z,2.70
2022-09-11T06:27:28.833Z,3.60
2022-09-11T06:28:28.847Z,2.70
2022-09-11T06:29:28.862Z,2.80
2022-09-11T06:30:28.949Z,2.30
2022-09-11T06:31:28.889Z,2.00
2022-09-11T06:32:28.922Z,2.20
2022-09-11T06:33:28.917Z,2.30
2022-09-11T06:34:28.929Z,3.30
2022-09-11T06:35:28.945Z,3.80
2022-09-11T06:36:28.959Z,2.60
2022-09-11T06:37:28.971Z,2.70
2022-09-11T06:38:28.985Z,2.70
2022-09-11T06:39:29.000Z,3.60
2022-09-11T06:40:29.016Z,2.30
2022-09-11T06:41:29.032Z,2.70
2022-09-11T06:42:29.042Z,3.00
2022-09-11T06:43:29.056Z,2.80
2022-09-11T06:44:29.069Z,3.00
2022-09-11T06:45:29.082Z,2.20
2022-09-11T06:46:29.096Z,3.20
2022-09-11T06:47:29.112Z,2.20
2022-09-11T06:48:29.144Z,2.80
2022-09-11T06:49:29.139Z,3.00
2022-09-11T06:50:29.160Z,2.60
2022-09-11T06:51:29.166Z,2.40
2022-09-11T06:52:29.181Z,3.00
2022-09-11T06:53:29.195Z,3.10
2022-09-11T06:54:29.208Z,3.20
2022-09-11T06:55:29.220Z,2.80
2022-09-11T06:56:29.234Z,3.00
2022-09-11T06:57:29.249Z,3.10
2022-09-11T06:58:29.261Z,2.80
2022-09-11T06:59:29.277Z,2.90
2022-09-11T07:00:29.291Z,2.60
2022-09-11T07:01:29.459Z,3.20
2022-09-11T07:02:29.317Z,3.10
2022-09-11T07:03:29.331Z,2.50
2022-09-11T07:04:29.362Z,2.50
2022-09-11T07:05:29.357Z,3.10
2022-09-11T07:06:29.373Z,3.00
2022-09-11T07:07:29.387Z,3.00
2022-09-11T07:08:29.401Z,3.40
2022-09-11T07:09:29.412Z,3.90
2022-09-11T07:10:29.427Z,2.50
2022-09-11T07:11:29.441Z,2.20
2022-09-11T07:12:29.454Z,2.50
2022-09-11T07:13:29.470Z,2.90
2022-09-11T07:14:29.481Z,2.50
2022-09-11T07:15:29.494Z,2.80
2022-09-11T07:16:29.590Z,3.00
2022-09-11T07:17:29.523Z,3.60
2022-09-11T07:18:29.573Z,3.50
2022-09-11T07:19:29.551Z,2.90
2022-09-11T07:20:29.585Z,3.30
2022-09-11T07:21:29.577Z,4.20
2022-09-11T07:22:29.593Z,2.90
2022-09-11T07:23:29.605Z,2.90
2022-09-11T07:24:29.618Z,3.10
2022-09-11T07:25:29.631Z,2.90
2022-09-11T07:26:29.645Z,3.00
2022-09-11T07:27:29.665Z,3.30
2022-09-11T07:28:29.676Z,3.10
2022-09-11T07:29:29.685Z,3.10
2022-09-11T07:30:29.719Z,2.60
2022-09-11T07:31:29.716Z,3.10
2022-09-11T07:32:29.728Z,3.30
2022-09-11T07:33:29.741Z,2.30
2022-09-11T07:34:29.756Z,2.90
2022-09-11T07:35:29.769Z,2.80
2022-09-11T07:36:29.802Z,2.80
2022-09-11T07:37:29.795Z,3.70
2022-09-11T07:38:29.809Z,3.00
2022-09-11T07:39:29.824Z,3.10
2022-09-11T07:40:29.837Z,3.10
2022-09-11T07:41:29.849Z,3.20
2022-09-11T07:42:29.865Z,2.80
2022-09-11T07:43:29.876Z,3.90
2022-09-11T07:44:29.892Z,3.80
2022-09-11T07:45:29.970Z,3.20
2022-09-11T07:46:29.918Z,3.20
2022-09-11T07:47:29.931Z,3.20
2022-09-11T07:48:29.945Z,3.60
2022-09-11T07:49:29.959Z,2.90
2022-09-11T07:50:29.972Z,2.80
2022-09-11T07:51:29.985Z,3.10
2022-09-11T07:52:30.021Z,3.00
2022-09-11T07:53:30.014Z,3.30
2022-09-11T07:54:30.028Z,3.60
2022-09-11T07:55:30.042Z,3.60
2022-09-11T07:56:30.054Z,2.90
2022-09-11T07:57:30.066Z,4.10
2022-09-11T07:58:30.081Z,2.90
2022-09-11T07:59:30.095Z,2.70
2022-09-11T08:00:34.001Z,2.80
2022-09-11T08:01:30.213Z,3.00
2022-09-11T08:02:30.193Z,3.20
2022-09-11T08:03:30.149Z,3.20
2022-09-11T08:04:30.163Z,3.10
2022-09-11T08:05:30.175Z,3.60
2022-09-11T08:06:30.192Z,3.20
2022-09-11T08:07:30.203Z,3.00
2022-09-11T08:08:30.238Z,3.80
2022-09-11T08:09:30.230Z,2.90
2022-09-11T08:10:30.245Z,3.20
2022-09-11T08:11:30.261Z,3.80
2022-09-11T08:12:30.272Z,3.00
2022-09-11T08:13:30.283Z,2.80
2022-09-11T08:14:30.297Z,3.50
2022-09-11T08:15:30.314Z,3.20
2022-09-11T08:16:30.359Z,3.40
2022-09-11T08:17:30.337Z,3.50
2022-09-11T08:18:30.353Z,2.80
2022-09-11T08:19:30.366Z,3.30
2022-09-11T08:20:30.380Z,3.30
2022-09-11T08:21:30.391Z,4.20
2022-09-11T08:22:30.404Z,2.90
2022-09-11T08:23:30.420Z,4.40
2022-09-11T08:24:30.451Z,3.80
2022-09-11T08:25:30.447Z,3.10
2022-09-11T08:26:30.458Z,3.50
2022-09-11T08:27:30.471Z,4.70
2022-09-11T08:28:30.487Z,3.70
2022-09-11T08:29:30.498Z,3.80
2022-09-11T08:30:30.513Z,3.00
2022-09-11T08:31:30.684Z,3.20
2022-09-11T08:32:30.540Z,2.40
2022-09-11T08:33:30.552Z,3.10
2022-09-11T08:34:30.566Z,3.40
2022-09-11T08:35:30.580Z,3.50
2022-09-11T08:36:30.594Z,3.60
2022-09-11T08:37:30.605Z,3.90
2022-09-11T08:38:30.620Z,4.70
2022-09-11T08:39:30.633Z,2.80
2022-09-11T08:40:30.669Z,2.10
2022-09-11T08:41:30.661Z,3.40
2022-09-11T08:42:30.673Z,3.50
2022-09-11T08:43:30.687Z,3.60
2022-09-11T08:44:30.699Z,3.50
2022-09-11T08:45:30.755Z,4.00
2022-09-11T08:46:30.727Z,2.60
2022-09-11T08:47:30.741Z,3.00
2022-09-11T08:48:30.754Z,3.70
2022-09-11T08:49:30.775Z,3.40
2022-09-11T08:50:30.782Z,3.50
2022-09-11T08:51:30.796Z,3.30
2022-09-11T08:52:30.810Z,3.80
2022-09-11T08:53:30.823Z,3.40
2022-09-11T08:54:30.835Z,3.10
2022-09-11T08:55:30.848Z,3.90
2022-09-11T08:56:30.879Z,3.40
2022-09-11T08:57:30.877Z,3.70
2022-09-11T08:58:30.888Z,3.70
2022-09-11T08:59:30.901Z,3.50
2022-09-11T09:00:30.915Z,3.40
2022-09-11T09:01:31.070Z,3.60
2022-09-11T09:02:30.991Z,3.20
2022-09-11T09:03:30.955Z,3.20
2022-09-11T09:04:30.970Z,3.30
2022-09-11T09:05:30.982Z,2.90
2022-09-11T09:06:30.995Z,2.60
2022-09-11T09:07:31.008Z,3.00
2022-09-11T09:08:31.023Z,3.90
2022-09-11T09:09:34.918Z,3.10
2022-09-11T09:10:31.049Z,2.80
2022-09-11T09:11:31.062Z,3.20
2022-09-11T09:12:31.095Z,3.80
2022-09-11T09:13:31.088Z,3.10
2022-09-11T09:14:31.101Z,2.30
2022-09-11T09:15:31.114Z,3.10
2022-09-11T09:16:31.130Z,3.20
2022-09-11T09:17:31.141Z,3.10
2022-09-11T09:18:31.154Z,3.70
2022-09-11T09:19:31.169Z,3.10
2022-09-11T09:20:31.183Z,4.20
2022-09-11T09:21:31.195Z,2.30
2022-09-11T09:22:31.209Z,2.70
2022-09-11T09:23:31.226Z,4.00
2022-09-11T09:24:31.236Z,3.60
2022-09-11T09:25:31.252Z,3.10
2022-09-11T09:26:34.254Z,3.30
2022-09-11T09:27:31.277Z,3.30
2022-09-11T09:28:31.312Z,3.20
2022-09-11T09:29:31.301Z,3.20
2022-09-11T09:30:31.314Z,2.30
2022-09-11T09:31:31.432Z,2.00
2022-09-11T09:32:31.343Z,2.10
2022-09-11T09:33:31.356Z,2.30
2022-09-11T09:34:31.369Z,3.90
2022-09-11T09:35:31.382Z,2.80
2022-09-11T09:36:31.398Z,2.70
2022-09-11T09:37:31.407Z,2.60
2022-09-11T09:38:31.433Z,2.20
2022-09-11T09:39:31.434Z,2.50
2022-09-11T09:40:31.448Z,2.60
2022-09-11T09:41:31.461Z,2.60
2022-09-11T09:42:31.476Z,2.70
2022-09-11T09:43:32.298Z,1.90
2022-09-11T09:44:31.519Z,3.00
2022-09-11T09:45:31.514Z,2.90
2022-09-11T09:46:31.730Z,2.40
2022-09-11T09:47:31.546Z,2.10
2022-09-11T09:48:31.554Z,2.20
2022-09-11T09:49:31.569Z,3.40
2022-09-11T09:50:31.579Z,2.70
2022-09-11T09:51:31.595Z,2.40
2022-09-11T09:52:31.607Z,2.70
2022-09-11T09:53:31.619Z,2.90
2022-09-11T09:54:31.633Z,2.70
2022-09-11T09:55:31.647Z,2.10
2022-09-11T09:56:31.662Z,2.80
2022-09-11T09:57:31.674Z,1.90
2022-09-11T09:58:31.689Z,2.30
2022-09-11T09:59:31.701Z,2.80
2022-09-11T10:00:31.732Z,2.80
2022-09-11T10:01:31.754Z,2.70
2022-09-11T10:02:31.773Z,2.50
2022-09-11T10:03:31.753Z,3.00
2022-09-11T10:04:31.767Z,2.70
2022-09-11T10:05:31.779Z,2.10
2022-09-11T10:06:31.793Z,3.20
2022-09-11T10:07:31.806Z,3.00
2022-09-11T10:08:31.822Z,1.80
2022-09-11T10:09:31.833Z,2.80
2022-09-11T10:10:31.846Z,3.00
2022-09-11T10:11:31.860Z,2.30
2022-09-11T10:12:31.874Z,2.40
2022-09-11T10:13:31.885Z,2.00
2022-09-11T10:14:50.345Z,3.00
2022-09-11T10:15:31.963Z,3.90
2022-09-11T10:16:31.944Z,2.60
2022-09-11T10:17:31.937Z,2.70
2022-09-11T10:18:31.951Z,2.50
2022-09-11T10:19:31.964Z,2.00
2022-09-11T10:20:31.979Z,2.10
2022-09-11T10:21:31.991Z,2.50
2022-09-11T10:22:32.003Z,2.90
2022-09-11T10:23:32.018Z,1.80
2022-09-11T10:24:32.031Z,3.10
2022-09-11T10:25:32.045Z,2.30
2022-09-11T10:26:32.057Z,2.10
2022-09-11T10:27:32.072Z,1.90
2022-09-11T10:28:32.086Z,4.10
2022-09-11T10:29:32.098Z,2.40
2022-09-11T10:30:32.110Z,2.40
2022-09-11T10:31:32.123Z,2.40
2022-09-11T10:32:32.155Z,2.40
2022-09-11T10:33:32.148Z,2.60
2022-09-11T10:34:32.164Z,2.30
2022-09-11T10:35:32.176Z,2.80
2022-09-11T10:36:32.192Z,3.10
2022-09-11T10:37:32.203Z,3.00
2022-09-11T10:38:32.218Z,2.00
2022-09-11T10:39:32.227Z,1.60
2022-09-11T10:40:32.241Z,2.60
2022-09-11T10:41:32.257Z,2.00
2022-09-11T10:42:32.267Z,3.30
2022-09-11T10:43:32.283Z,2.10
2022-09-11T10:44:32.295Z,1.40
2022-09-11T10:45:32.366Z,2.60
2022-09-11T10:46:38.587Z,3.10
2022-09-11T10:47:32.332Z,2.50
2022-09-11T10:48:32.365Z,2.70
2022-09-11T10:49:32.360Z,1.90
2022-09-11T10:50:32.373Z,2.70
2022-09-11T10:51:32.385Z,1.90
2022-09-11T10:52:32.401Z,2.20
2022-09-11T10:53:32.437Z,2.80
2022-09-11T10:54:32.426Z,2.00
2022-09-11T10:55:32.440Z,3.40
2022-09-11T10:56:32.455Z,3.00
2022-09-11T10:57:32.464Z,1.70
2022-09-11T10:58:32.478Z,2.20
2022-09-11T10:59:32.491Z,1.50
2022-09-11T11:00:32.507Z,2.00
2022-09-11T11:01:32.554Z,3.60
2022-09-11T11:02:32.562Z,4.30
2022-09-11T11:03:32.543Z,2.90
2022-09-11T11:04:32.576Z,2.10
2022-09-11T11:05:32.568Z,2.30
2022-09-11T11:06:32.591Z,1.50
2022-09-11T11:07:32.597Z,2.10
2022-09-11T11:08:32.610Z,2.40
2022-09-11T11:09:32.621Z,1.50
2022-09-11T11:10:32.636Z,2.30
2022-09-11T11:11:32.652Z,2.30
2022-09-11T11:12:32.672Z,1.90
2022-09-11T11:13:32.674Z,2.30
2022-09-11T11:14:32.690Z,1.90
2022-09-11T11:15:32.703Z,1.90
2022-09-11T11:16:32.716Z,1.80
2022-09-11T11:17:32.727Z,2.60
2022-09-11T11:18:32.739Z,2.20
2022-09-11T11:19:32.754Z,1.80
2022-09-11T11:20:32.784Z,2.00
2022-09-11T11:21:32.780Z,2.60
2022-09-11T11:22:32.791Z,2.20
2022-09-11T11:23:32.810Z,2.60
2022-09-11T11:24:32.819Z,1.70
2022-09-11T11:25:32.831Z,2.90
2022-09-11T11:26:32.848Z,2.10
2022-09-11T11:27:32.859Z,3.00
2022-09-11T11:28:32.872Z,2.90
2022-09-11T11:29:32.885Z,3.20
2022-09-11T11:30:32.898Z,1.90
2022-09-11T11:31:32.944Z,1.50
2022-09-11T11:32:32.925Z,1.70
2022-09-11T11:33:32.936Z,1.90
2022-09-11T11:34:32.949Z,2.50
2022-09-11T11:35:32.965Z,2.20
2022-09-11T11:36:32.995Z,2.20
2022-09-11T11:37:32.989Z,1.60
2022-09-11T11:38:33.008Z,1.80
2022-09-11T11:39:33.015Z,1.80
2022-09-11T11:40:33.029Z,2.50
2022-09-11T11:41:33.041Z,2.00
2022-09-11T11:42:33.053Z,2.00
2022-09-11T11:43:33.067Z,2.80
2022-09-11T11:44:33.081Z,2.60
2022-09-11T11:45:33.173Z,2.20
2022-09-11T11:46:33.107Z,1.90
2022-09-11T11:47:33.121Z,2.10
2022-09-11T11:48:33.267Z,1.60
2022-09-11T11:49:33.145Z,1.90
2022-09-11T11:50:33.160Z,2.00
2022-09-11T11:51:33.174Z,1.60
2022-09-11T11:52:33.206Z,2.10
2022-09-11T11:53:33.197Z,2.50
2022-09-11T11:54:33.211Z,4.10
2022-09-11T11:55:33.226Z,2.30
2022-09-11T11:56:33.240Z,2.10
2022-09-11T11:57:33.251Z,1.50
2022-09-11T11:58:33.380Z,1.70
2022-09-11T11:59:33.276Z,2.30
2022-09-11T12:00:33.289Z,1.60
2022-09-11T12:01:33.327Z,2.50
2022-09-11T12:02:33.317Z,1.80
2022-09-11T12:03:33.392Z,2.00
2022-09-11T12:04:33.341Z,2.40
2022-09-11T12:05:33.354Z,2.70
2022-09-11T12:06:33.373Z,2.00
2022-09-11T12:07:33.383Z,2.60
2022-09-11T12:08:33.540Z,1.00
2022-09-11T12:09:34.081Z,1.70
2022-09-11T12:10:33.430Z,1.30
2022-09-11T12:11:33.433Z,1.80
2022-09-11T12:12:33.445Z,2.00
2022-09-11T12:13:33.459Z,2.70
2022-09-11T12:14:33.472Z,1.90
2022-09-11T12:15:33.486Z,2.00
2022-09-11T12:16:33.530Z,2.20
2022-09-11T12:17:33.509Z,3.00
2022-09-11T12:18:33.556Z,1.70
2022-09-11T12:19:33.537Z,1.50
2022-09-11T12:20:33.550Z,2.10
2022-09-11T12:21:33.561Z,1.80
2022-09-11T12:22:33.584Z,2.10
2022-09-11T12:23:33.593Z,2.70
2022-09-11T12:24:33.626Z,2.20
2022-09-11T12:25:33.615Z,2.40
2022-09-11T12:26:33.633Z,1.10
2022-09-11T12:27:33.642Z,3.20
2022-09-11T12:28:33.658Z,1.80
2022-09-11T12:29:33.668Z,2.10
2022-09-11T12:30:33.679Z,1.50
2022-09-11T12:31:33.744Z,2.00
2022-09-11T12:32:33.707Z,2.60
2022-09-11T12:33:33.721Z,1.20
2022-09-11T12:34:33.733Z,1.90
2022-09-11T12:35:33.746Z,1.20
2022-09-11T12:36:33.758Z,3.30
2022-09-11T12:37:33.773Z,2.10
2022-09-11T12:38:33.875Z,2.00
2022-09-11T12:39:33.799Z,2.40
2022-09-11T12:40:33.830Z,3.00
2022-09-11T12:41:33.841Z,1.60
2022-09-11T12:42:33.837Z,1.60
2022-09-11T12:43:33.853Z,2.40
2022-09-11T12:44:33.866Z,2.00
2022-09-11T12:45:33.969Z,1.90
2022-09-11T12:46:33.890Z,3.60
2022-09-11T12:47:33.902Z,1.60
2022-09-11T12:48:34.001Z,2.10
2022-09-11T12:49:33.927Z,2.00
2022-09-11T12:50:33.941Z,2.70
2022-09-11T12:51:33.956Z,3.40
2022-09-11T12:52:33.969Z,1.50
2022-09-11T12:53:33.981Z,1.60
2022-09-11T12:54:33.994Z,2.50
2022-09-11T12:55:34.008Z,2.10
2022-09-11T12:56:34.039Z,1.80
2022-09-11T12:57:34.034Z,2.30
2022-09-11T12:58:34.252Z,1.80
2022-09-11T12:59:34.061Z,2.20
2022-09-11T13:00:34.080Z,2.90
2022-09-11T13:01:34.199Z,2.20
2022-09-11T13:02:34.098Z,2.80
2022-09-11T13:03:34.111Z,2.20
2022-09-11T13:04:34.126Z,1.50
2022-09-11T13:05:34.136Z,3.10
2022-09-11T13:06:34.149Z,1.90
2022-09-11T13:07:34.163Z,1.40
2022-09-11T13:08:34.272Z,1.70
2022-09-11T13:09:34.190Z,2.30
2022-09-11T13:10:34.201Z,2.20
2022-09-11T13:11:34.217Z,2.00
2022-09-11T13:12:34.249Z,3.00
2022-09-11T13:13:34.241Z,2.30
2022-09-11T13:14:34.256Z,1.80
2022-09-11T13:15:34.357Z,2.30
2022-09-11T13:16:34.281Z,1.80
2022-09-11T13:17:34.295Z,2.90
2022-09-11T13:18:34.406Z,1.40